TAF MNPC
MNPC 071600Z 0718/0818 07014KT 9999 BKN016 TEMPO 0719/0802 7000 RA OVC017 BECMG 0806/0808 09006KT SCT016=
METAR MNPC
MNPC 072300Z 08010KT 7000 BKN016 29/26 Q1010 HZ=
MNPC 072200Z 09004KT 7000 BKN016 29/26 Q1010 HZ=
MNPC 072100Z 08006KT 7000 BKN016 29/26 Q1010 HZ=
MNPC 072000Z 09006KT 7000 BKN016 28/26 Q1010 HZ=
MNPC 071900Z 09006KT 7000 BKN016 28/26 Q1011 HZ=
WC MNPC
WS MNPC
WV MNPC